sensor_id;sensor_type;location;lat;lon;timestamp;P1;durP1;ratioP1;P2;durP2;ratioP2
31692;SDS011;37436;53.230;6.614;2022-12-18T00:01:56;105.13;;;28.80;;
31692;SDS011;37436;53.230;6.614;2022-12-18T00:04:24;61.25;;;17.95;;
31692;SDS011;37436;53.230;6.614;2022-12-18T00:06:50;62.35;;;17.52;;
31692;SDS011;37436;53.230;6.614;2022-12-18T00:09:16;41.00;;;9.35;;
31692;SDS011;37436;53.230;6.614;2022-12-18T00:11:43;25.98;;;9.85;;
31692;SDS011;37436;53.230;6.614;2022-12-18T00:14:12;90.10;;;24.15;;
31692;SDS011;37436;53.230;6.614;2022-12-18T00:16:39;45.05;;;18.25;;
31692;SDS011;37436;53.230;6.614;2022-12-18T00:19:05;51.83;;;15.05;;
31692;SDS011;37436;53.230;6.614;2022-12-18T00:21:33;84.05;;;23.38;;
31692;SDS011;37436;53.230;6.614;2022-12-18T00:23:59;80.00;;;21.15;;
31692;SDS011;37436;53.230;6.614;2022-12-18T00:26:26;54.45;;;16.80;;
31692;SDS011;37436;53.230;6.614;2022-12-18T00:28:53;92.10;;;25.13;;
31692;SDS011;37436;53.230;6.614;2022-12-18T00:31:21;19.98;;;9.30;;
31692;SDS011;37436;53.230;6.614;2022-12-18T00:33:48;54.85;;;13.80;;
31692;SDS011;37436;53.230;6.614;2022-12-18T00:36:15;67.13;;;18.65;;
31692;SDS011;37436;53.230;6.614;2022-12-18T00:38:42;49.88;;;17.85;;
31692;SDS011;37436;53.230;6.614;2022-12-18T00:41:08;72.25;;;20.17;;
31692;SDS011;37436;53.230;6.614;2022-12-18T00:43:35;76.88;;;15.90;;
31692;SDS011;37436;53.230;6.614;2022-12-18T00:46:01;59.65;;;16.05;;
31692;SDS011;37436;53.230;6.614;2022-12-18T00:48:27;79.90;;;21.98;;
31692;SDS011;37436;53.230;6.614;2022-12-18T00:50:53;66.72;;;18.65;;
31692;SDS011;37436;53.230;6.614;2022-12-18T00:53:19;74.32;;;23.10;;
31692;SDS011;37436;53.230;6.614;2022-12-18T00:55:45;81.50;;;19.63;;
31692;SDS011;37436;53.230;6.614;2022-12-18T00:58:12;63.35;;;18.77;;
31692;SDS011;37436;53.230;6.614;2022-12-18T01:00:38;83.28;;;23.17;;
31692;SDS011;37436;53.230;6.614;2022-12-18T01:03:05;73.45;;;19.42;;
31692;SDS011;37436;53.230;6.614;2022-12-18T01:05:31;107.25;;;26.00;;
31692;SDS011;37436;53.230;6.614;2022-12-18T01:07:57;83.82;;;26.92;;
31692;SDS011;37436;53.230;6.614;2022-12-18T01:10:24;101.20;;;26.38;;
31692;SDS011;37436;53.230;6.614;2022-12-18T01:12:50;79.63;;;24.50;;
31692;SDS011;37436;53.230;6.614;2022-12-18T01:15:16;67.88;;;15.88;;
31692;SDS011;37436;53.230;6.614;2022-12-18T01:17:43;88.28;;;23.60;;
31692;SDS011;37436;53.230;6.614;2022-12-18T01:20:09;71.40;;;19.75;;
31692;SDS011;37436;53.230;6.614;2022-12-18T01:22:36;50.30;;;13.93;;
31692;SDS011;37436;53.230;6.614;2022-12-18T01:25:02;102.72;;;23.85;;
31692;SDS011;37436;53.230;6.614;2022-12-18T01:27:29;88.60;;;22.10;;
31692;SDS011;37436;53.230;6.614;2022-12-18T01:29:55;65.50;;;18.63;;
31692;SDS011;37436;53.230;6.614;2022-12-18T01:32:21;86.70;;;23.48;;
31692;SDS011;37436;53.230;6.614;2022-12-18T01:34:48;68.05;;;20.48;;
31692;SDS011;37436;53.230;6.614;2022-12-18T01:37:14;83.93;;;27.02;;
31692;SDS011;37436;53.230;6.614;2022-12-18T01:39:40;80.97;;;23.20;;
31692;SDS011;37436;53.230;6.614;2022-12-18T01:42:11;87.25;;;23.90;;
31692;SDS011;37436;53.230;6.614;2022-12-18T01:47:30;99.50;;;26.08;;
31692;SDS011;37436;53.230;6.614;2022-12-18T01:50:06;30.13;;;10.27;;
31692;SDS011;37436;53.230;6.614;2022-12-18T01:52:33;59.92;;;16.75;;
31692;SDS011;37436;53.230;6.614;2022-12-18T01:54:59;79.35;;;21.92;;
31692;SDS011;37436;53.230;6.614;2022-12-18T01:57:26;73.68;;;20.02;;
31692;SDS011;37436;53.230;6.614;2022-12-18T01:59:52;103.18;;;25.50;;
31692;SDS011;37436;53.230;6.614;2022-12-18T02:02:19;94.53;;;24.85;;
31692;SDS011;37436;53.230;6.614;2022-12-18T02:04:46;88.82;;;24.08;;
31692;SDS011;37436;53.230;6.614;2022-12-18T02:09:40;92.82;;;25.83;;
31692;SDS011;37436;53.230;6.614;2022-12-18T02:12:13;80.97;;;21.85;;
31692;SDS011;37436;53.230;6.614;2022-12-18T02:14:44;88.45;;;21.98;;
31692;SDS011;37436;53.230;6.614;2022-12-18T02:17:18;98.45;;;26.40;;
31692;SDS011;37436;53.230;6.614;2022-12-18T02:19:55;87.63;;;25.17;;
31692;SDS011;37436;53.230;6.614;2022-12-18T02:22:28;85.45;;;24.52;;
31692;SDS011;37436;53.230;6.614;2022-12-18T02:27:37;92.10;;;25.27;;
31692;SDS011;37436;53.230;6.614;2022-12-18T02:30:04;107.82;;;24.33;;
31692;SDS011;37436;53.230;6.614;2022-12-18T02:32:33;92.53;;;25.35;;
31692;SDS011;37436;53.230;6.614;2022-12-18T02:35:00;95.20;;;26.38;;
31692;SDS011;37436;53.230;6.614;2022-12-18T02:37:28;85.20;;;22.90;;
31692;SDS011;37436;53.230;6.614;2022-12-18T02:39:55;87.72;;;25.45;;
31692;SDS011;37436;53.230;6.614;2022-12-18T02:42:22;97.10;;;23.60;;
31692;SDS011;37436;53.230;6.614;2022-12-18T02:44:49;99.05;;;23.33;;
31692;SDS011;37436;53.230;6.614;2022-12-18T02:47:24;90.25;;;24.10;;
31692;SDS011;37436;53.230;6.614;2022-12-18T02:49:57;97.88;;;25.85;;
31692;SDS011;37436;53.230;6.614;2022-12-18T02:52:37;88.97;;;24.33;;
31692;SDS011;37436;53.230;6.614;2022-12-18T02:55:08;89.75;;;24.70;;
31692;SDS011;37436;53.230;6.614;2022-12-18T02:57:43;96.60;;;23.88;;
31692;SDS011;37436;53.230;6.614;2022-12-18T03:00:21;91.72;;;22.45;;
31692;SDS011;37436;53.230;6.614;2022-12-18T03:02:51;97.72;;;24.98;;
31692;SDS011;37436;53.230;6.614;2022-12-18T03:05:28;93.95;;;23.70;;
31692;SDS011;37436;53.230;6.614;2022-12-18T03:08:03;100.28;;;24.35;;
31692;SDS011;37436;53.230;6.614;2022-12-18T03:10:32;99.75;;;25.17;;
31692;SDS011;37436;53.230;6.614;2022-12-18T03:13:03;101.15;;;25.13;;
31692;SDS011;37436;53.230;6.614;2022-12-18T03:15:31;63.05;;;17.33;;
31692;SDS011;37436;53.230;6.614;2022-12-18T03:18:02;92.07;;;24.90;;
31692;SDS011;37436;53.230;6.614;2022-12-18T03:20:31;95.28;;;26.08;;
31692;SDS011;37436;53.230;6.614;2022-12-18T03:22:59;95.97;;;26.42;;
31692;SDS011;37436;53.230;6.614;2022-12-18T03:25:28;99.57;;;25.52;;
31692;SDS011;37436;53.230;6.614;2022-12-18T03:27:57;113.35;;;27.70;;
31692;SDS011;37436;53.230;6.614;2022-12-18T03:30:24;93.25;;;26.65;;
31692;SDS011;37436;53.230;6.614;2022-12-18T03:32:52;82.63;;;23.65;;
31692;SDS011;37436;53.230;6.614;2022-12-18T03:35:24;76.85;;;23.27;;
31692;SDS011;37436;53.230;6.614;2022-12-18T03:37:52;85.93;;;23.33;;
31692;SDS011;37436;53.230;6.614;2022-12-18T03:40:19;97.63;;;26.65;;
31692;SDS011;37436;53.230;6.614;2022-12-18T03:42:51;104.65;;;25.77;;
31692;SDS011;37436;53.230;6.614;2022-12-18T03:50:25;100.50;;;26.27;;
31692;SDS011;37436;53.230;6.614;2022-12-18T03:55:25;103.78;;;26.63;;
31692;SDS011;37436;53.230;6.614;2022-12-18T03:57:53;93.50;;;27.17;;
31692;SDS011;37436;53.230;6.614;2022-12-18T04:00:20;112.20;;;27.27;;
31692;SDS011;37436;53.230;6.614;2022-12-18T04:02:48;106.40;;;27.27;;
31692;SDS011;37436;53.230;6.614;2022-12-18T04:05:15;100.15;;;24.60;;
31692;SDS011;37436;53.230;6.614;2022-12-18T04:07:42;112.20;;;27.90;;
31692;SDS011;37436;53.230;6.614;2022-12-18T04:10:09;90.80;;;25.30;;
31692;SDS011;37436;53.230;6.614;2022-12-18T04:12:36;91.32;;;25.48;;
31692;SDS011;37436;53.230;6.614;2022-12-18T04:15:03;99.82;;;26.15;;
31692;SDS011;37436;53.230;6.614;2022-12-18T04:17:29;97.38;;;26.67;;
31692;SDS011;37436;53.230;6.614;2022-12-18T04:19:55;80.57;;;19.60;;
31692;SDS011;37436;53.230;6.614;2022-12-18T04:22:21;115.75;;;28.17;;
31692;SDS011;37436;53.230;6.614;2022-12-18T04:24:47;93.38;;;26.30;;
31692;SDS011;37436;53.230;6.614;2022-12-18T04:27:13;103.32;;;26.27;;
31692;SDS011;37436;53.230;6.614;2022-12-18T04:29:39;83.55;;;26.70;;
31692;SDS011;37436;53.230;6.614;2022-12-18T04:32:05;96.60;;;27.45;;
31692;SDS011;37436;53.230;6.614;2022-12-18T04:34:31;86.40;;;22.95;;
31692;SDS011;37436;53.230;6.614;2022-12-18T04:36:57;97.25;;;26.42;;
31692;SDS011;37436;53.230;6.614;2022-12-18T04:39:23;88.43;;;24.10;;
31692;SDS011;37436;53.230;6.614;2022-12-18T04:41:49;95.57;;;23.27;;
31692;SDS011;37436;53.230;6.614;2022-12-18T04:44:15;101.07;;;25.80;;
31692;SDS011;37436;53.230;6.614;2022-12-18T04:46:42;98.03;;;24.83;;
31692;SDS011;37436;53.230;6.614;2022-12-18T04:49:08;98.95;;;25.38;;
31692;SDS011;37436;53.230;6.614;2022-12-18T04:51:35;101.28;;;24.20;;
31692;SDS011;37436;53.230;6.614;2022-12-18T04:54:01;83.15;;;25.15;;
31692;SDS011;37436;53.230;6.614;2022-12-18T04:56:27;96.53;;;23.45;;
31692;SDS011;37436;53.230;6.614;2022-12-18T04:58:53;85.47;;;24.02;;
31692;SDS011;37436;53.230;6.614;2022-12-18T05:01:19;87.28;;;23.75;;
31692;SDS011;37436;53.230;6.614;2022-12-18T05:03:45;97.25;;;23.27;;
31692;SDS011;37436;53.230;6.614;2022-12-18T05:06:11;90.57;;;24.05;;
31692;SDS011;37436;53.230;6.614;2022-12-18T05:08:37;92.53;;;26.23;;
31692;SDS011;37436;53.230;6.614;2022-12-18T05:11:05;77.57;;;23.42;;
31692;SDS011;37436;53.230;6.614;2022-12-18T05:13:31;90.97;;;24.45;;
31692;SDS011;37436;53.230;6.614;2022-12-18T05:16:01;86.45;;;23.30;;
31692;SDS011;37436;53.230;6.614;2022-12-18T05:18:28;92.80;;;23.42;;
31692;SDS011;37436;53.230;6.614;2022-12-18T05:20:54;88.85;;;22.63;;
31692;SDS011;37436;53.230;6.614;2022-12-18T05:23:21;76.07;;;22.00;;
31692;SDS011;37436;53.230;6.614;2022-12-18T05:25:50;89.70;;;25.50;;
31692;SDS011;37436;53.230;6.614;2022-12-18T05:28:17;76.05;;;18.90;;
31692;SDS011;37436;53.230;6.614;2022-12-18T05:30:46;84.40;;;22.70;;
31692;SDS011;37436;53.230;6.614;2022-12-18T05:33:12;94.22;;;21.02;;
31692;SDS011;37436;53.230;6.614;2022-12-18T05:35:38;110.50;;;23.73;;
31692;SDS011;37436;53.230;6.614;2022-12-18T05:38:04;88.72;;;23.35;;
31692;SDS011;37436;53.230;6.614;2022-12-18T05:40:30;77.45;;;20.67;;
31692;SDS011;37436;53.230;6.614;2022-12-18T05:42:56;89.13;;;21.73;;
31692;SDS011;37436;53.230;6.614;2022-12-18T05:45:22;97.05;;;23.92;;
31692;SDS011;37436;53.230;6.614;2022-12-18T05:47:48;76.90;;;21.83;;
31692;SDS011;37436;53.230;6.614;2022-12-18T05:50:14;85.45;;;23.10;;
31692;SDS011;37436;53.230;6.614;2022-12-18T05:52:40;86.32;;;20.48;;
31692;SDS011;37436;53.230;6.614;2022-12-18T05:55:07;91.28;;;22.17;;
31692;SDS011;37436;53.230;6.614;2022-12-18T05:57:33;84.88;;;22.27;;
31692;SDS011;37436;53.230;6.614;2022-12-18T05:59:59;74.72;;;20.63;;
31692;SDS011;37436;53.230;6.614;2022-12-18T06:02:25;80.65;;;22.55;;
31692;SDS011;37436;53.230;6.614;2022-12-18T06:04:51;66.15;;;17.45;;
31692;SDS011;37436;53.230;6.614;2022-12-18T06:07:17;87.40;;;22.70;;
31692;SDS011;37436;53.230;6.614;2022-12-18T06:09:43;68.18;;;21.20;;
31692;SDS011;37436;53.230;6.614;2022-12-18T06:12:09;81.40;;;21.40;;
31692;SDS011;37436;53.230;6.614;2022-12-18T06:14:35;79.97;;;21.88;;
31692;SDS011;37436;53.230;6.614;2022-12-18T06:17:01;94.32;;;22.25;;
31692;SDS011;37436;53.230;6.614;2022-12-18T06:19:27;71.30;;;21.25;;
31692;SDS011;37436;53.230;6.614;2022-12-18T06:21:53;56.95;;;16.48;;
31692;SDS011;37436;53.230;6.614;2022-12-18T06:24:19;71.38;;;20.63;;
31692;SDS011;37436;53.230;6.614;2022-12-18T06:26:45;70.60;;;20.30;;
31692;SDS011;37436;53.230;6.614;2022-12-18T06:29:11;70.65;;;21.08;;
31692;SDS011;37436;53.230;6.614;2022-12-18T06:31:37;77.07;;;19.85;;
31692;SDS011;37436;53.230;6.614;2022-12-18T06:34:04;72.72;;;19.65;;
31692;SDS011;37436;53.230;6.614;2022-12-18T06:36:30;79.90;;;19.23;;
31692;SDS011;37436;53.230;6.614;2022-12-18T06:38:56;74.55;;;16.83;;
31692;SDS011;37436;53.230;6.614;2022-12-18T06:41:22;68.18;;;18.80;;
31692;SDS011;37436;53.230;6.614;2022-12-18T06:43:48;66.30;;;18.23;;
31692;SDS011;37436;53.230;6.614;2022-12-18T06:46:14;63.42;;;18.17;;
31692;SDS011;37436;53.230;6.614;2022-12-18T06:48:41;55.92;;;16.70;;
31692;SDS011;37436;53.230;6.614;2022-12-18T06:51:15;53.55;;;17.70;;
31692;SDS011;37436;53.230;6.614;2022-12-18T06:53:41;59.30;;;17.88;;
31692;SDS011;37436;53.230;6.614;2022-12-18T06:56:07;59.03;;;17.90;;
31692;SDS011;37436;53.230;6.614;2022-12-18T06:58:33;46.42;;;16.40;;
31692;SDS011;37436;53.230;6.614;2022-12-18T07:01:00;58.00;;;17.52;;
31692;SDS011;37436;53.230;6.614;2022-12-18T07:03:26;57.70;;;16.88;;
31692;SDS011;37436;53.230;6.614;2022-12-18T07:05:52;62.40;;;17.83;;
31692;SDS011;37436;53.230;6.614;2022-12-18T07:08:18;53.38;;;15.77;;
31692;SDS011;37436;53.230;6.614;2022-12-18T07:10:45;59.17;;;14.35;;
31692;SDS011;37436;53.230;6.614;2022-12-18T07:13:11;50.22;;;15.63;;
31692;SDS011;37436;53.230;6.614;2022-12-18T07:15:37;54.20;;;16.00;;
31692;SDS011;37436;53.230;6.614;2022-12-18T07:18:03;38.78;;;12.57;;
31692;SDS011;37436;53.230;6.614;2022-12-18T07:20:29;59.65;;;15.65;;
31692;SDS011;37436;53.230;6.614;2022-12-18T07:22:55;60.22;;;17.00;;
31692;SDS011;37436;53.230;6.614;2022-12-18T07:25:21;49.30;;;13.55;;
31692;SDS011;37436;53.230;6.614;2022-12-18T07:27:47;55.00;;;15.95;;
31692;SDS011;37436;53.230;6.614;2022-12-18T07:30:13;58.25;;;15.55;;
31692;SDS011;37436;53.230;6.614;2022-12-18T07:32:39;43.88;;;15.43;;
31692;SDS011;37436;53.230;6.614;2022-12-18T07:35:05;46.45;;;15.65;;
31692;SDS011;37436;53.230;6.614;2022-12-18T07:37:31;53.72;;;17.50;;
31692;SDS011;37436;53.230;6.614;2022-12-18T07:40:02;51.15;;;17.63;;
31692;SDS011;37436;53.230;6.614;2022-12-18T07:42:28;43.40;;;15.65;;
31692;SDS011;37436;53.230;6.614;2022-12-18T07:45:04;54.88;;;16.42;;
31692;SDS011;37436;53.230;6.614;2022-12-18T07:47:30;49.50;;;14.70;;
31692;SDS011;37436;53.230;6.614;2022-12-18T07:50:03;49.45;;;14.85;;
31692;SDS011;37436;53.230;6.614;2022-12-18T07:52:30;51.50;;;14.15;;
31692;SDS011;37436;53.230;6.614;2022-12-18T07:54:58;49.90;;;16.20;;
31692;SDS011;37436;53.230;6.614;2022-12-18T07:57:24;46.45;;;14.70;;
31692;SDS011;37436;53.230;6.614;2022-12-18T07:59:50;50.47;;;15.05;;
31692;SDS011;37436;53.230;6.614;2022-12-18T08:02:16;64.05;;;16.20;;
31692;SDS011;37436;53.230;6.614;2022-12-18T08:04:42;48.03;;;15.35;;
31692;SDS011;37436;53.230;6.614;2022-12-18T08:07:08;57.95;;;15.65;;
31692;SDS011;37436;53.230;6.614;2022-12-18T08:09:37;49.38;;;15.48;;
31692;SDS011;37436;53.230;6.614;2022-12-18T08:12:03;46.25;;;15.15;;
31692;SDS011;37436;53.230;6.614;2022-12-18T08:14:29;51.20;;;16.48;;
31692;SDS011;37436;53.230;6.614;2022-12-18T08:16:58;47.30;;;14.75;;
31692;SDS011;37436;53.230;6.614;2022-12-18T08:19:27;45.45;;;15.90;;
31692;SDS011;37436;53.230;6.614;2022-12-18T08:21:53;50.90;;;15.65;;
31692;SDS011;37436;53.230;6.614;2022-12-18T08:24:19;44.97;;;15.10;;
31692;SDS011;37436;53.230;6.614;2022-12-18T08:26:46;56.58;;;16.77;;
31692;SDS011;37436;53.230;6.614;2022-12-18T08:29:12;47.03;;;16.27;;
31692;SDS011;37436;53.230;6.614;2022-12-18T08:31:38;46.33;;;14.80;;
31692;SDS011;37436;53.230;6.614;2022-12-18T08:34:04;33.00;;;13.70;;
31692;SDS011;37436;53.230;6.614;2022-12-18T08:36:30;52.30;;;15.50;;
31692;SDS011;37436;53.230;6.614;2022-12-18T08:38:56;47.47;;;15.80;;
31692;SDS011;37436;53.230;6.614;2022-12-18T08:41:22;41.47;;;14.30;;
31692;SDS011;37436;53.230;6.614;2022-12-18T08:43:48;41.55;;;14.82;;
31692;SDS011;37436;53.230;6.614;2022-12-18T08:46:37;36.25;;;14.70;;
31692;SDS011;37436;53.230;6.614;2022-12-18T08:49:04;41.25;;;13.38;;
31692;SDS011;37436;53.230;6.614;2022-12-18T08:51:30;54.17;;;15.05;;
31692;SDS011;37436;53.230;6.614;2022-12-18T08:53:56;39.88;;;14.00;;
31692;SDS011;37436;53.230;6.614;2022-12-18T08:56:22;46.53;;;16.30;;
31692;SDS011;37436;53.230;6.614;2022-12-18T08:58:51;40.05;;;15.98;;
31692;SDS011;37436;53.230;6.614;2022-12-18T09:01:17;43.42;;;16.40;;
31692;SDS011;37436;53.230;6.614;2022-12-18T09:03:43;43.00;;;14.95;;
31692;SDS011;37436;53.230;6.614;2022-12-18T09:06:09;37.38;;;12.80;;
31692;SDS011;37436;53.230;6.614;2022-12-18T09:08:39;48.80;;;15.73;;
31692;SDS011;37436;53.230;6.614;2022-12-18T09:11:09;29.73;;;11.57;;
31692;SDS011;37436;53.230;6.614;2022-12-18T09:13:37;42.15;;;14.35;;
31692;SDS011;37436;53.230;6.614;2022-12-18T09:16:03;36.72;;;13.70;;
31692;SDS011;37436;53.230;6.614;2022-12-18T09:18:29;43.83;;;13.80;;
31692;SDS011;37436;53.230;6.614;2022-12-18T09:20:55;42.33;;;15.95;;
31692;SDS011;37436;53.230;6.614;2022-12-18T09:23:21;44.35;;;15.15;;
31692;SDS011;37436;53.230;6.614;2022-12-18T09:25:47;47.70;;;14.27;;
31692;SDS011;37436;53.230;6.614;2022-12-18T09:28:15;40.28;;;15.02;;
31692;SDS011;37436;53.230;6.614;2022-12-18T09:30:42;45.83;;;14.73;;
31692;SDS011;37436;53.230;6.614;2022-12-18T09:33:09;37.60;;;13.57;;
31692;SDS011;37436;53.230;6.614;2022-12-18T09:35:38;33.85;;;12.82;;
31692;SDS011;37436;53.230;6.614;2022-12-18T09:38:05;42.00;;;13.40;;
31692;SDS011;37436;53.230;6.614;2022-12-18T09:40:40;31.42;;;13.00;;
31692;SDS011;37436;53.230;6.614;2022-12-18T09:43:09;38.20;;;13.48;;
31692;SDS011;37436;53.230;6.614;2022-12-18T09:45:43;31.23;;;12.45;;
31692;SDS011;37436;53.230;6.614;2022-12-18T09:48:11;33.33;;;13.40;;
31692;SDS011;37436;53.230;6.614;2022-12-18T09:50:41;32.63;;;12.90;;
31692;SDS011;37436;53.230;6.614;2022-12-18T09:53:17;32.33;;;11.75;;
31692;SDS011;37436;53.230;6.614;2022-12-18T09:55:45;31.30;;;12.48;;
31692;SDS011;37436;53.230;6.614;2022-12-18T09:58:20;28.85;;;11.30;;
31692;SDS011;37436;53.230;6.614;2022-12-18T10:00:54;37.20;;;12.10;;
31692;SDS011;37436;53.230;6.614;2022-12-18T10:03:29;19.67;;;7.63;;
31692;SDS011;37436;53.230;6.614;2022-12-18T10:08:49;27.67;;;10.75;;
31692;SDS011;37436;53.230;6.614;2022-12-18T10:14:17;29.83;;;10.02;;
31692;SDS011;37436;53.230;6.614;2022-12-18T10:19:21;26.50;;;12.20;;
31692;SDS011;37436;53.230;6.614;2022-12-18T10:21:51;26.13;;;9.88;;
31692;SDS011;37436;53.230;6.614;2022-12-18T10:24:33;21.92;;;8.98;;
31692;SDS011;37436;53.230;6.614;2022-12-18T10:27:35;28.17;;;10.52;;
31692;SDS011;37436;53.230;6.614;2022-12-18T10:29:54;17.63;;;8.68;;
31692;SDS011;37436;53.230;6.614;2022-12-18T10:32:22;24.92;;;9.90;;
31692;SDS011;37436;53.230;6.614;2022-12-18T10:34:50;15.57;;;8.05;;
31692;SDS011;37436;53.230;6.614;2022-12-18T10:37:19;20.40;;;8.80;;
31692;SDS011;37436;53.230;6.614;2022-12-18T10:39:46;23.63;;;9.07;;
31692;SDS011;37436;53.230;6.614;2022-12-18T10:42:30;17.00;;;7.88;;
31692;SDS011;37436;53.230;6.614;2022-12-18T10:45:16;23.55;;;8.05;;
31692;SDS011;37436;53.230;6.614;2022-12-18T10:47:46;16.70;;;8.50;;
31692;SDS011;37436;53.230;6.614;2022-12-18T10:50:25;16.05;;;7.30;;
31692;SDS011;37436;53.230;6.614;2022-12-18T10:53:02;19.08;;;8.65;;
31692;SDS011;37436;53.230;6.614;2022-12-18T10:55:33;23.77;;;8.68;;
31692;SDS011;37436;53.230;6.614;2022-12-18T11:00:44;14.38;;;6.88;;
31692;SDS011;37436;53.230;6.614;2022-12-18T11:03:28;19.77;;;7.70;;
31692;SDS011;37436;53.230;6.614;2022-12-18T11:08:29;23.13;;;8.05;;
31692;SDS011;37436;53.230;6.614;2022-12-18T11:10:55;18.30;;;7.43;;
31692;SDS011;37436;53.230;6.614;2022-12-18T11:13:26;15.25;;;7.07;;
31692;SDS011;37436;53.230;6.614;2022-12-18T11:15:52;18.70;;;7.88;;
31692;SDS011;37436;53.230;6.614;2022-12-18T11:18:29;18.45;;;7.10;;
31692;SDS011;37436;53.230;6.614;2022-12-18T11:20:59;16.00;;;5.97;;
31692;SDS011;37436;53.230;6.614;2022-12-18T11:23:26;16.88;;;7.78;;
31692;SDS011;37436;53.230;6.614;2022-12-18T11:26:03;18.35;;;7.55;;
31692;SDS011;37436;53.230;6.614;2022-12-18T11:28:46;17.00;;;6.97;;
31692;SDS011;37436;53.230;6.614;2022-12-18T11:31:17;16.65;;;7.70;;
31692;SDS011;37436;53.230;6.614;2022-12-18T11:33:52;12.93;;;6.53;;
31692;SDS011;37436;53.230;6.614;2022-12-18T11:36:39;14.95;;;7.00;;
31692;SDS011;37436;53.230;6.614;2022-12-18T11:39:10;16.85;;;7.78;;
31692;SDS011;37436;53.230;6.614;2022-12-18T11:41:39;18.77;;;7.13;;
31692;SDS011;37436;53.230;6.614;2022-12-18T11:44:28;16.00;;;6.35;;
31692;SDS011;37436;53.230;6.614;2022-12-18T11:47:00;15.63;;;6.05;;
31692;SDS011;37436;53.230;6.614;2022-12-18T11:49:33;20.83;;;6.47;;
31692;SDS011;37436;53.230;6.614;2022-12-18T11:52:07;18.70;;;6.53;;
31692;SDS011;37436;53.230;6.614;2022-12-18T11:54:34;17.75;;;6.45;;
31692;SDS011;37436;53.230;6.614;2022-12-18T11:57:12;14.02;;;6.68;;
31692;SDS011;37436;53.230;6.614;2022-12-18T12:08:11;12.23;;;6.10;;
31692;SDS011;37436;53.230;6.614;2022-12-18T12:28:59;9.77;;;4.85;;
31692;SDS011;37436;53.230;6.614;2022-12-18T12:36:44;12.18;;;5.28;;
31692;SDS011;37436;53.230;6.614;2022-12-18T12:39:12;13.00;;;5.18;;
31692;SDS011;37436;53.230;6.614;2022-12-18T12:41:39;12.10;;;4.80;;
31692;SDS011;37436;53.230;6.614;2022-12-18T12:44:35;11.88;;;4.90;;
31692;SDS011;37436;53.230;6.614;2022-12-18T12:47:04;11.23;;;4.63;;
31692;SDS011;37436;53.230;6.614;2022-12-18T12:49:41;10.00;;;4.40;;
31692;SDS011;37436;53.230;6.614;2022-12-18T12:55:02;13.60;;;5.75;;
31692;SDS011;37436;53.230;6.614;2022-12-18T12:57:31;52.55;;;6.20;;
31692;SDS011;37436;53.230;6.614;2022-12-18T13:00:07;10.93;;;4.95;;
31692;SDS011;37436;53.230;6.614;2022-12-18T13:02:47;9.77;;;4.25;;
31692;SDS011;37436;53.230;6.614;2022-12-18T13:05:17;12.77;;;5.78;;
31692;SDS011;37436;53.230;6.614;2022-12-18T13:07:46;16.95;;;4.90;;
31692;SDS011;37436;53.230;6.614;2022-12-18T13:10:26;11.80;;;4.85;;
31692;SDS011;37436;53.230;6.614;2022-12-18T13:12:57;16.90;;;4.15;;
31692;SDS011;37436;53.230;6.614;2022-12-18T13:18:15;13.02;;;5.00;;
31692;SDS011;37436;53.230;6.614;2022-12-18T13:20:43;11.70;;;4.90;;
31692;SDS011;37436;53.230;6.614;2022-12-18T13:25:49;17.77;;;5.60;;
31692;SDS011;37436;53.230;6.614;2022-12-18T13:28:16;10.57;;;4.72;;
31692;SDS011;37436;53.230;6.614;2022-12-18T13:30:44;7.90;;;3.45;;
31692;SDS011;37436;53.230;6.614;2022-12-18T13:35:42;11.82;;;5.05;;
31692;SDS011;37436;53.230;6.614;2022-12-18T13:38:34;12.77;;;4.95;;
31692;SDS011;37436;53.230;6.614;2022-12-18T13:43:48;19.67;;;5.32;;
31692;SDS011;37436;53.230;6.614;2022-12-18T13:48:56;13.75;;;5.63;;
31692;SDS011;37436;53.230;6.614;2022-12-18T13:51:23;13.43;;;5.40;;
31692;SDS011;37436;53.230;6.614;2022-12-18T13:53:51;10.95;;;4.25;;
31692;SDS011;37436;53.230;6.614;2022-12-18T13:56:42;13.02;;;5.05;;
31692;SDS011;37436;53.230;6.614;2022-12-18T13:59:10;12.27;;;4.82;;
31692;SDS011;37436;53.230;6.614;2022-12-18T14:01:41;16.10;;;4.93;;
31692;SDS011;37436;53.230;6.614;2022-12-18T14:04:11;8.82;;;4.40;;
31692;SDS011;37436;53.230;6.614;2022-12-18T14:06:38;8.18;;;4.60;;
31692;SDS011;37436;53.230;6.614;2022-12-18T14:09:09;11.75;;;5.10;;
31692;SDS011;37436;53.230;6.614;2022-12-18T14:11:42;12.93;;;4.82;;
31692;SDS011;37436;53.230;6.614;2022-12-18T14:14:13;10.15;;;4.88;;
31692;SDS011;37436;53.230;6.614;2022-12-18T14:16:40;12.13;;;5.13;;
31692;SDS011;37436;53.230;6.614;2022-12-18T14:19:08;11.13;;;5.28;;
31692;SDS011;37436;53.230;6.614;2022-12-18T14:21:40;14.60;;;5.22;;
31692;SDS011;37436;53.230;6.614;2022-12-18T14:24:15;10.65;;;4.60;;
31692;SDS011;37436;53.230;6.614;2022-12-18T14:26:43;13.25;;;5.30;;
31692;SDS011;37436;53.230;6.614;2022-12-18T14:29:21;13.57;;;5.50;;
31692;SDS011;37436;53.230;6.614;2022-12-18T14:32:08;12.73;;;5.78;;
31692;SDS011;37436;53.230;6.614;2022-12-18T14:34:35;12.75;;;5.03;;
31692;SDS011;37436;53.230;6.614;2022-12-18T14:37:01;11.07;;;5.72;;
31692;SDS011;37436;53.230;6.614;2022-12-18T14:39:27;10.35;;;4.97;;
31692;SDS011;37436;53.230;6.614;2022-12-18T14:41:55;16.95;;;5.25;;
31692;SDS011;37436;53.230;6.614;2022-12-18T14:44:22;12.43;;;5.40;;
31692;SDS011;37436;53.230;6.614;2022-12-18T14:46:49;15.30;;;6.05;;
31692;SDS011;37436;53.230;6.614;2022-12-18T14:49:32;18.27;;;5.50;;
31692;SDS011;37436;53.230;6.614;2022-12-18T14:54:29;12.90;;;5.03;;
31692;SDS011;37436;53.230;6.614;2022-12-18T14:59:25;18.80;;;6.90;;
31692;SDS011;37436;53.230;6.614;2022-12-18T15:01:57;23.20;;;5.88;;
31692;SDS011;37436;53.230;6.614;2022-12-18T15:04:27;14.65;;;6.50;;
31692;SDS011;37436;53.230;6.614;2022-12-18T15:09:40;15.93;;;6.38;;
31692;SDS011;37436;53.230;6.614;2022-12-18T15:12:18;16.00;;;6.57;;
31692;SDS011;37436;53.230;6.614;2022-12-18T15:14:46;20.75;;;6.68;;
31692;SDS011;37436;53.230;6.614;2022-12-18T15:17:21;13.25;;;6.60;;
31692;SDS011;37436;53.230;6.614;2022-12-18T15:19:49;13.65;;;6.40;;
31692;SDS011;37436;53.230;6.614;2022-12-18T15:22:24;13.45;;;5.60;;
31692;SDS011;37436;53.230;6.614;2022-12-18T15:24:50;13.87;;;5.93;;
31692;SDS011;37436;53.230;6.614;2022-12-18T15:30:01;17.70;;;7.30;;
31692;SDS011;37436;53.230;6.614;2022-12-18T15:32:31;15.02;;;6.50;;
31692;SDS011;37436;53.230;6.614;2022-12-18T15:37:35;11.43;;;6.13;;
31692;SDS011;37436;53.230;6.614;2022-12-18T15:40:02;18.77;;;7.35;;
31692;SDS011;37436;53.230;6.614;2022-12-18T15:42:28;11.40;;;5.05;;
31692;SDS011;37436;53.230;6.614;2022-12-18T15:45:13;16.98;;;7.72;;
31692;SDS011;37436;53.230;6.614;2022-12-18T15:47:45;19.08;;;7.85;;
31692;SDS011;37436;53.230;6.614;2022-12-18T15:50:11;52.63;;;8.30;;
31692;SDS011;37436;53.230;6.614;2022-12-18T15:52:41;22.42;;;8.95;;
31692;SDS011;37436;53.230;6.614;2022-12-18T15:55:18;17.30;;;6.72;;
31692;SDS011;37436;53.230;6.614;2022-12-18T15:58:04;15.07;;;6.88;;
31692;SDS011;37436;53.230;6.614;2022-12-18T16:00:34;12.93;;;6.65;;
31692;SDS011;37436;53.230;6.614;2022-12-18T16:03:00;14.65;;;7.35;;
31692;SDS011;37436;53.230;6.614;2022-12-18T16:05:30;29.00;;;9.15;;
31692;SDS011;37436;53.230;6.614;2022-12-18T16:07:56;21.85;;;9.07;;